DOBRY DZIK
Huntrun Kozienice
Organizator : ALOHA EVENTY sp. z o.o.
Data : 2022-06-05
Miejsce : Kozienice
Dystans : 6 km
Zgłoszonych : 597
Wystartowało : 533
Nie ukończyło : 1
Ukończyło : 532
Na trasie : 1
Pełne wyniki :
Uproszczone :
Klasyfikacje w punktach pomiarowych: Start | Meta
Klasyfikacje wg kategorii: Wszyscy | Open - Kobiety | Open - Mężczyźni | Drużynowa | 09:00 | 09:30 | 10:00 | 10:30 | 11:00 | 11:30 | 12:00 | 12:30 | 13:00
Klasyfikacja wg czasu brutto. Wyniki nieoficjalne !!!
MscZawodnikNumerKlubMiejscowośćKrajKategoriaMkatK/MFalaDrużyna 1Czas startuCzas
netto
6km
Czas
brutto
6km
Różn.Tempo
min/km
Tempo
km/h
         
1MIKLIŃSKI Grzegorz 819Open - Mężczyźni5M 511:30 00:00:0000:45:20.2000:45:20.20 7:337,9
2SKALSKI Tymoteusz 1147Open - Mężczyźni6M 611:3000:00:0000:45:23.6500:45:23.65+00:00:037:337,9
3SKALSKI Maksymilian 1146Open - Mężczyźni13M 1311:3000:00:0000:48:57.8000:48:57.80+00:03:378:097,4
4WÓJCIK Paweł 844Open - Mężczyźni14M 1411:30OLIMPIJSKI DZIESIĘCIOBÓJ LUBELSKI00:00:0000:49:01.2000:49:01.20+00:03:418:107,3
5MROZOWSKI Michał 808Open - Mężczyźni17M 1711:30OLIMPIJSKI DZIESIĘCIOBÓJ LUBELSKI00:00:0000:50:09.7000:50:09.70+00:04:498:217,2
6MAJAK Adrian 811Open - Mężczyźni18M 1811:30 00:00:0000:50:12.7000:50:12.70+00:04:528:227,2
7REPELEWSKA Krista 828Open - Kobiety1K 111:30OLIMPIJSKI DZIESIĘCIOBÓJ LUBELSKI00:00:0000:53:47.5500:53:47.55+00:08:278:576,7
8PODLEŚNY Maciej 807Open - Mężczyźni31M 3111:30 00:00:0000:54:37.1000:54:37.10+00:09:169:066,6
9ZABORSKI Ksawery 831Open - Mężczyźni32M 3211:30OLIMPIJSKI DZIESIĘCIOBÓJ LUBELSKI00:00:0000:54:41.5000:54:41.50+00:09:219:066,6
10BORYCZKO Mateusz 838Open - Mężczyźni33M 3311:30ASGARD_RADOM00:00:0000:55:00.1500:55:00.15+00:09:399:106,5
11PIKULA Tomasz 865Open - Mężczyźni47M 4711:30OLIMPIJSKI DZIESIĘCIOBÓJ LUBELSKI00:00:0000:59:01.0500:59:01.05+00:13:409:506,1
12MAMCZARZ Patrycjusz 858Open - Mężczyźni57M 5711:30OLIMPIJSKI DZIESIĘCIOBÓJ LUBELSKI00:00:0001:00:52.1001:00:52.10+00:15:3110:085,9
13TARAS Bashtovyi 845Open - Mężczyźni62M 6211:3000:00:0001:02:17.9001:02:17.90+00:16:5710:225,8
14DEPTA Grzegorz 820Open - Mężczyźni67M 6711:30 00:00:0001:03:40.1001:03:40.10+00:18:1910:365,7
15CHOLEWA Paweł 846Open - Mężczyźni77M 7711:30OLIMPIJSKI DZIESIĘCIOBÓJ LUBELSKI00:00:0001:05:18.7001:05:18.70+00:19:5810:535,5
16WÓJCIK Rafał 849Open - Mężczyźni87M 8711:30OLIMPIJSKI DZIESIĘCIOBÓJ LUBELSKI00:00:0001:06:17.5501:06:17.55+00:20:5711:025,4
17BOBRYK-MAMCZARZ Aneta 855Open - Kobiety13K 1311:30OLIMPIJSKI DZIESIĘCIOBÓJ LUBELSKI00:00:0001:06:35.1501:06:35.15+00:21:1411:055,4
18MICHOWSKA Anna Ewa 814Open - Kobiety14K 1411:30OLIMPIJSKI DZIESIĘCIOBÓJ LUBELSKI00:00:0001:06:54.2001:06:54.20+00:21:3411:095,4
19ŻUK Agata 861Open - Kobiety15K 1511:30OLIMPIJSKI DZIESIĘCIOBÓJ LUBELSKI00:00:0001:07:42.8501:07:42.85+00:22:2211:175,3
20ŻUK Wiktoria 854Open - Kobiety16K 1611:30OLIMPIJSKI DZIESIĘCIOBÓJ LUBELSKI00:00:0001:07:44.2501:07:44.25+00:22:2411:175,3
21PADEWSKA Patrycja 842Open - Kobiety17K 1711:30 00:00:0001:08:10.8501:08:10.85+00:22:5011:215,3
22MALINOWSKI Kamil 764Open - Mężczyźni108M 10811:30 00:00:0001:08:19.6001:08:19.60+00:22:5911:235,3
23ŚWIERBUTOWICZ KAWALEC Anna 862Open - Kobiety19K 1911:30OLIMPIJSKI DZIESIĘCIOBÓJ LUBELSKI00:00:0001:08:19.6501:08:19.65+00:22:5911:235,3
24JAGIEŁŁO Rafał 1145Open - Mężczyźni109M 10911:3000:00:0001:08:24.1501:08:24.15+00:23:0311:245,3
25HODUN Mirek 857Open - Mężczyźni110M 11011:30 00:00:0001:08:43.9501:08:43.95+00:23:2311:275,2
26SZADKOWSKI Seweryn 850Open - Mężczyźni111M 11111:30 00:00:0001:08:44.0501:08:44.05+00:23:2311:275,2
27KARWACKI Emil 863Open - Mężczyźni112M 11211:30OLIMPIJSKI DZIESIĘCIOBÓJ LUBELSKI00:00:0001:08:47.9501:08:47.95+00:23:2711:275,2
28ZYGMUNT Marcin 835Open - Mężczyźni113M 11311:30 00:00:0001:08:54.1501:08:54.15+00:23:3311:295,2
29GWOZDA Mariusz 836Open - Mężczyźni114M 11411:30OLIMPIJSKI DZIESIĘCIOBÓJ LUBELSKI00:00:0001:08:54.8501:08:54.85+00:23:3411:295,2
30PRETKO Elżbieta 817Open - Kobiety24K 2411:30DZIKUSKI00:00:0001:10:11.0001:10:11.00+00:24:5011:415,1
31ŚWITKA Magdalena 832Open - Kobiety25K 2511:30DZIKUSKI00:00:0001:10:11.1001:10:11.10+00:24:5011:415,1
32WÓJCIK Magda 864Open - Kobiety31K 3111:30 00:00:0001:12:53.5001:12:53.50+00:27:3312:084,9
33KRUKOWSKI Mirosław 840Open - Mężczyźni142M 14211:30OLIMPIJSKI DZIESIĘCIOBÓJ LUBELSKI00:00:0001:13:26.6001:13:26.60+00:28:0612:144,9
34TUŁAJEW Michał 860Open - Mężczyźni160M 16011:30OLIMPIJSKI DZIESIĘCIOBÓJ LUBELSKI00:00:0001:15:57.2001:15:57.20+00:30:3712:394,7
35MILER-PODGAJNA Aleksandra 813Open - Kobiety46K 4611:30OLIMPIJSKI DZIESIĘCIOBÓJ LUBELSKI00:00:0001:17:01.1001:17:01.10+00:31:4012:504,7
36RYCIAK Szymon 852Open - Mężczyźni168M 16811:30 00:00:0001:17:03.2501:17:03.25+00:31:4312:504,7
37ŁUCZAK Piotr 847Open - Mężczyźni174M 17411:30 00:00:0001:17:41.7501:17:41.75+00:32:2112:564,6
38WÓJCIK Marcin 833Open - Mężczyźni175M 17511:30OLIMPIJSKI DZIESIĘCIOBÓJ LUBELSKI00:00:0001:17:44.3501:17:44.35+00:32:2412:574,6
39MURAT Piotr 848Open - Mężczyźni183M 18311:30OLIMPIJSKI DZIESIĘCIOBÓJ LUBELSKI00:00:0001:18:24.3001:18:24.30+00:33:0413:044,6
40SOLECKI Mariusz 837Open - Mężczyźni194M 19411:30 00:00:0001:19:49.9001:19:49.90+00:34:2913:184,5
41STANIEC Monika 841Open - Kobiety67K 6711:30OLIMPIJSKI DZIESIĘCIOBÓJ LUBELSKI00:00:0001:21:11.3001:21:11.30+00:35:5113:314,4
42PIEKARZ Marek 1144Open - Mężczyźni203M 20311:30ODL00:00:0001:21:16.7001:21:16.70+00:35:5613:324,4
43KRÓL Bożena 816Open - Kobiety107K 10711:30 00:00:0001:25:10.3501:25:10.35+00:39:5014:114,2
44KRÓWCZYŃSKA Barbara 815Open - Kobiety108K 10811:30 00:00:0001:25:13.9501:25:13.95+00:39:5314:124,2
45JEŻMAŃSKI Sławek 851Open - Mężczyźni230M 23011:30 00:00:0001:25:23.5001:25:23.50+00:40:0314:134,2
46MALINOWSKI Szymon 809Open - Mężczyźni250M 25011:30RESERVOIR DOGS00:00:0001:27:22.9501:27:22.95+00:42:0214:334,1
47HORYD Justyna 825Open - Kobiety127K 12711:30RESERVOIR DOGS00:00:0001:27:23.3001:27:23.30+00:42:0314:334,1
48HORYD Tymoteusz 866Open - Mężczyźni251M 25111:30RESERVOIR DOGS00:00:0001:27:23.9501:27:23.95+00:42:0314:334,1
49PAWLIK Justyna 824Open - Kobiety150K 15011:30 00:00:0001:29:51.9001:29:51.90+00:44:3114:584,0
50ZIENKIEWICZ Joanna 822Open - Kobiety151K 15111:30 00:00:0001:29:52.2001:29:52.20+00:44:3214:584,0
51RZEPKA Kamil 894Open - Mężczyźni276M 27611:30 00:00:0001:36:10.9501:36:10.95+00:50:5016:013,7
52RZEPKA Marcin 907Open - Mężczyźni277M 27711:3000:00:0001:36:12.3001:36:12.30+00:50:5216:023,7
53BOREJ - MARMAJ Iwona 821Open - Kobiety178K 17811:30 00:00:0001:37:34.6001:37:34.60+00:52:1416:153,7
54MARMAJ Tomasz 853Open - Mężczyźni279M 27911:30 00:00:0001:37:35.6501:37:35.65+00:52:1516:153,7
55WOJNIAK Krzysztof 830Open - Mężczyźni286M 28611:30DZIKI Z WESOŁEJ 00:00:0001:41:24.3501:41:24.35+00:56:0416:543,6
56WOJNIAK Joanna 823Open - Kobiety186K 18611:30DZIKI Z WESOŁEJ 00:00:0001:41:24.4001:41:24.40+00:56:0416:543,6
57TRYKA Adam 810Open - Mężczyźni287M 28711:30DZIKI Z WESOŁEJ 00:00:0001:41:24.4501:41:24.45+00:56:0416:543,6
58TRYKA Agnieszka 812Open - Kobiety187K 18711:30DZIKI Z WESOŁEJ 00:00:0001:41:24.6501:41:24.65+00:56:0416:543,6
59KISIO Sylwia 826Open - Kobiety216K 21611:3000:00:0002:00:04.1502:00:04.15+01:14:4320:003,0
60DZIK Paulina 843Open - Kobiety217K 21711:30 00:00:0002:00:07.7002:00:07.70+01:14:4720:013,0
61PASEK Ewelina 818Open - Kobiety218K 21811:30 00:00:0002:01:39.1002:01:39.10+01:16:1820:163,0
62MATYSIAK Karolina 827Open - Kobiety219K 21911:3000:00:0002:01:42.6502:01:42.65+01:16:2220:173,0
Znaleziono 62 wynik(ów)